Central City, PA

9:18 PM EDT on August 29, 2015 (GMT -0400)
Indian Lake | | Change Station
CLOSE
Current Station
Personal Weather Station
Location: Central City, PA
Elevation: 2297 ft
Nearby Weather Stations

Elev 2297 ft 40.05 °N, 78.87 °W | Updated 3 seconds ago

Clear
Clear
64.6 °F
Feels Like 64.6 °F
N
0.0
Wind Variable Wind from WSW
Gusts 0.0 mph

Today
High -- | Low -- °F
--% Chance of Precip.
Yesterday
High -- | Low -- °F
Precip. -- in
6:39 AM 7:51 PM
Full, 100% visible
Pressure 30.13 in
Visibility 10.0 miles
Clouds Clear
Dew Point 62 °F
Humidity 91%
Rainfall 0.00 in
Snow Depth Not available.
UV 0.0 out of 12
Pollen 9.80 out of 12
Air Quality Not available.
Flu Activity Not available.
METAR KJST 300054Z AUTO 00000KT 10SM CLR 22/12 A3016 RMK AO2 SLP201 T02220122
Pressure 30.13 in
Visibility 10.0 miles
Clouds Clear
Dew Point 62 °F
Humidity 91%
Rainfall 0.00 in
Snow Depth Not available.
UV 0.0 out of 12
Pollen 9.80 out of 12
Air Quality Not available.
Flu Activity Not available.
METAR KJST 300054Z AUTO 00000KT 10SM CLR 22/12 A3016 RMK AO2 SLP201 T02220122

10-Day Weather Forecast

×

Almanac

Astronomy

Aug. 29, 2015 Rise Set
Actual Time
Civil Twilight
Nautical Twilight
Astronomical Twilight
Moon
Length of Visible Light
Length of Day
Tomorrow will be .
, % of the Moon is Illuminated

Today's Extremes

State Highs State Lows

Community

WunderPhotos

Upload Photos

1,850,827 photos uploaded!

WunderBlogs® & News

Nearby

Air Quality

  Air Quality AQ Index Pollutant
Not available.

Snow Depth

Station Depth Elevation

Earthquake Activity

City Distance Mag. Time & Date
Minimum magnitude displayed is 2.5.

Coastal Water Temperatures

Place Temperature

Stations

Nearby Weather Stations

Station Location Temp. Windchill Dew Point Humidity Wind Precip. Elev Updated Type